Time;durP1;ratioP1;P1;durP2;ratioP2;P2;SDS_P1;SDS_P2;PMS_P1;PMS_P2;Temp;Humidity;BMP_temperature;BMP_pressure;BME280_temperature;BME280_humidity;BME280_pressure;Samples;Min_cycle;Max_cycle;Signal;HPM_P1;HPM_P2
2021/08/07 00:00:59;;;;;;;4.57;3.03;;;16.30;99.90;;;;;;5056411;28;20021;-82
2021/08/07 00:03:24;;;;;;;5.85;2.78;;;16.20;99.90;;;;;;5056613;28;20263;-82
2021/08/07 00:05:50;;;;;;;3.22;2.45;;;16.20;99.90;;;;;;5039342;28;20056;-81
2021/08/07 00:08:16;;;;;;;2.20;2.00;;;16.20;99.90;;;;;;5056125;28;20036;-82
2021/08/07 00:10:42;;;;;;;4.97;2.20;;;16.20;99.90;;;;;;5057114;28;20036;-81
2021/08/07 00:13:08;;;;;;;3.08;2.75;;;16.20;99.90;;;;;;5055444;28;20626;-82
2021/08/07 00:15:33;;;;;;;4.18;2.97;;;16.20;99.90;;;;;;5055764;28;20032;-82
2021/08/07 00:17:59;;;;;;;4.28;2.30;;;16.10;99.90;;;;;;5056393;28;20101;-82
2021/08/07 00:20:25;;;;;;;5.45;2.03;;;16.10;99.90;;;;;;5055783;28;20465;-81
2021/08/07 00:22:51;;;;;;;3.00;2.20;;;16.10;99.90;;;;;;5038540;28;20123;-82
2021/08/07 00:25:17;;;;;;;3.35;1.90;;;16.10;99.90;;;;;;5070362;28;20029;-80
2021/08/07 00:27:43;;;;;;;6.88;1.98;;;16.10;99.90;;;;;;5060441;28;20497;-81
2021/08/07 00:30:09;;;;;;;4.15;2.33;;;16.00;99.90;;;;;;5055835;28;20128;-82
2021/08/07 00:32:35;;;;;;;5.07;2.47;;;16.00;99.90;;;;;;5055808;28;20488;-83
2021/08/07 00:35:01;;;;;;;3.95;2.22;;;16.00;99.90;;;;;;5037477;28;20052;-82
2021/08/07 00:37:27;;;;;;;6.32;2.50;;;16.20;99.90;;;;;;5055540;28;20035;-81
2021/08/07 00:39:53;;;;;;;3.92;2.35;;;16.20;99.90;;;;;;5055762;28;20477;-81
2021/08/07 00:42:18;;;;;;;5.70;2.83;;;16.20;99.90;;;;;;5056018;28;20031;-82
2021/08/07 00:44:44;;;;;;;3.72;1.98;;;16.20;99.90;;;;;;5055695;28;20021;-83
2021/08/07 00:47:10;;;;;;;5.63;2.40;;;16.20;99.90;;;;;;5055660;28;20044;-83
2021/08/07 00:49:35;;;;;;;4.20;2.67;;;16.20;99.90;;;;;;5055599;28;20036;-82
2021/08/07 00:52:01;;;;;;;4.75;2.40;;;16.20;99.90;;;;;;5056237;28;20433;-81
2021/08/07 00:54:27;;;;;;;4.32;2.53;;;16.20;99.90;;;;;;5055462;28;20029;-82
2021/08/07 00:56:53;;;;;;;4.93;2.28;;;16.20;99.90;;;;;;5038128;28;20032;-81
2021/08/07 00:59:18;;;;;;;5.93;2.42;;;16.20;99.90;;;;;;5054957;28;20040;-82
2021/08/07 01:01:48;;;;;;;2.53;1.88;;;16.20;99.90;;;;;;5037471;28;20068;-82
2021/08/07 01:04:19;;;;;;;4.68;2.33;;;16.20;99.90;;;;;;5037962;28;20036;-82
2021/08/07 01:06:54;;;;;;;4.22;1.90;;;16.20;99.90;;;;;;5054543;28;20033;-82
2021/08/07 01:09:41;;;;;;;6.43;2.40;;;16.30;99.90;;;;;;5056048;28;20488;-82
2021/08/07 01:12:16;;;;;;;4.90;2.03;;;16.20;99.90;;;;;;5038504;28;20465;-81
2021/08/07 01:14:43;;;;;;;9.60;2.97;;;16.20;99.90;;;;;;5055459;28;20036;-81
2021/08/07 01:17:18;;;;;;;4.45;2.22;;;16.20;99.90;;;;;;5056140;28;20013;-83
2021/08/07 01:20:16;;;;;;;5.20;2.35;;;16.20;99.90;;;;;;5055833;28;20027;-82
2021/08/07 01:22:45;;;;;;;2.47;2.05;;;16.20;99.90;;;;;;5051733;28;20033;-82
2021/08/07 01:25:15;;;;;;;4.03;2.28;;;16.20;99.90;;;;;;5058672;28;20025;-82
2021/08/07 01:27:42;;;;;;;6.18;2.70;;;16.20;99.90;;;;;;5060012;28;20033;-83
2021/08/07 01:30:10;;;;;;;4.07;1.95;;;16.20;99.90;;;;;;5059175;28;20028;-82
2021/08/07 01:32:38;;;;;;;7.00;2.42;;;16.10;99.90;;;;;;5044786;28;20092;-80
2021/08/07 01:35:06;;;;;;;4.45;2.20;;;16.20;99.90;;;;;;5060089;28;20043;-82
2021/08/07 01:37:32;;;;;;;4.63;2.40;;;16.10;99.90;;;;;;5059099;28;20021;-82
2021/08/07 01:39:58;;;;;;;3.90;2.63;;;16.10;99.90;;;;;;5059537;28;20465;-82
2021/08/07 01:42:25;;;;;;;3.83;1.95;;;16.10;99.90;;;;;;5059314;28;20031;-83
2021/08/07 01:44:51;;;;;;;3.38;2.05;;;16.10;99.90;;;;;;5059168;28;20024;-82
2021/08/07 01:47:37;;;;;;;3.35;2.10;;;16.10;99.90;;;;;;5058922;28;20447;-81
2021/08/07 01:50:05;;;;;;;5.90;2.55;;;16.10;99.90;;;;;;5059201;28;20021;-81
2021/08/07 01:52:38;;;;;;;6.50;2.35;;;16.10;99.90;;;;;;5056851;28;20025;-81
2021/08/07 01:55:08;;;;;;;3.28;1.83;;;16.10;99.90;;;;;;5078878;28;20048;-82
2021/08/07 01:57:40;;;;;;;3.78;2.58;;;16.10;99.90;;;;;;5057307;28;20104;-81
2021/08/07 02:00:06;;;;;;;3.22;2.15;;;16.10;99.90;;;;;;5057536;28;20048;-80
2021/08/07 02:02:33;;;;;;;3.08;1.70;;;16.10;99.90;;;;;;5058418;28;20013;-82
2021/08/07 02:04:59;;;;;;;4.30;2.30;;;16.10;99.90;;;;;;5041906;28;20167;-81
2021/08/07 02:07:27;;;;;;;5.68;2.70;;;16.10;99.90;;;;;;5059567;28;20036;-82
2021/08/07 02:09:54;;;;;;;4.93;2.10;;;16.10;99.90;;;;;;5059745;28;20035;-82
2021/08/07 02:12:20;;;;;;;6.15;2.13;;;16.10;99.90;;;;;;5047419;28;20041;-82
2021/08/07 02:14:47;;;;;;;4.90;2.08;;;16.10;99.90;;;;;;5040875;28;20043;-82
2021/08/07 02:17:13;;;;;;;2.80;2.40;;;16.10;99.90;;;;;;5059722;28;20106;-82
2021/08/07 02:19:39;;;;;;;3.55;2.30;;;16.20;99.90;;;;;;5059576;28;20021;-83
2021/08/07 02:22:07;;;;;;;3.85;2.08;;;16.20;99.90;;;;;;5059877;28;20025;-81
2021/08/07 02:24:33;;;;;;;3.30;2.08;;;16.20;99.90;;;;;;5059308;28;20021;-83
2021/08/07 02:27:00;;;;;;;2.47;1.98;;;16.10;99.90;;;;;;5059105;28;20130;-82
2021/08/07 02:29:26;;;;;;;3.92;2.22;;;16.20;99.90;;;;;;5043213;28;20523;-83
2021/08/07 02:31:53;;;;;;;2.75;1.83;;;16.20;99.90;;;;;;5058643;28;20503;-82
2021/08/07 02:34:20;;;;;;;5.82;2.03;;;16.20;99.90;;;;;;5058213;28;20033;-83
2021/08/07 02:36:47;;;;;;;3.53;2.53;;;16.30;99.90;;;;;;5040080;28;20183;-83
2021/08/07 02:39:13;;;;;;;2.50;2.03;;;16.30;99.90;;;;;;5040706;28;20047;-82
2021/08/07 02:41:39;;;;;;;4.50;2.40;;;16.30;99.90;;;;;;5058196;28;20021;-83
2021/08/07 02:44:05;;;;;;;2.97;2.03;;;16.30;99.90;;;;;;5040562;28;20090;-82
2021/08/07 02:46:32;;;;;;;3.67;2.08;;;16.30;99.90;;;;;;5057693;28;20037;-82
2021/08/07 02:48:58;;;;;;;5.60;2.08;;;16.30;99.90;;;;;;5057881;28;20035;-82
2021/08/07 02:51:25;;;;;;;2.78;1.92;;;16.30;99.90;;;;;;5058427;28;20036;-82
2021/08/07 02:53:51;;;;;;;3.13;2.00;;;16.30;99.90;;;;;;5057958;28;20021;-81
2021/08/07 02:56:18;;;;;;;7.07;2.13;;;16.30;99.90;;;;;;5057199;28;20029;-82
2021/08/07 02:58:44;;;;;;;4.32;1.98;;;16.30;99.90;;;;;;5039662;28;20501;-82
2021/08/07 03:01:09;;;;;;;4.53;2.00;;;16.30;99.90;;;;;;5057622;28;20063;-82
2021/08/07 03:03:35;;;;;;;5.88;2.22;;;16.30;99.90;;;;;;5057612;28;20021;-82
2021/08/07 03:06:00;;;;;;;4.40;1.80;;;16.30;99.90;;;;;;5057673;28;20025;-81
2021/08/07 03:08:26;;;;;;;5.70;2.05;;;16.40;99.90;;;;;;5057354;28;20548;-83
2021/08/07 03:10:52;;;;;;;3.70;2.17;;;16.30;99.90;;;;;;5057105;28;20489;-82
2021/08/07 03:13:18;;;;;;;3.45;1.65;;;16.20;99.90;;;;;;5057723;28;20111;-82
2021/08/07 03:15:44;;;;;;;5.63;2.42;;;16.20;99.90;;;;;;5039787;28;20029;-81
2021/08/07 03:18:09;;;;;;;5.68;1.90;;;16.30;99.90;;;;;;5057578;28;20092;-81
2021/08/07 03:20:35;;;;;;;3.65;1.85;;;16.50;99.90;;;;;;5057963;28;20033;-82
2021/08/07 03:23:06;;;;;;;3.97;1.50;;;16.30;99.90;;;;;;5057565;28;20029;-82
2021/08/07 03:25:32;;;;;;;8.63;2.80;;;16.20;99.90;;;;;;5073884;28;20036;-79
2021/08/07 03:27:58;;;;;;;2.53;1.50;;;16.10;99.90;;;;;;5041140;28;20067;-82
2021/08/07 03:30:24;;;;;;;3.15;1.58;;;16.00;99.90;;;;;;5056364;28;20021;-82
2021/08/07 03:32:50;;;;;;;3.40;1.85;;;16.00;99.90;;;;;;5038659;28;20039;-81
2021/08/07 03:35:16;;;;;;;4.22;2.20;;;15.90;99.90;;;;;;5057720;28;20112;-82
2021/08/07 03:37:41;;;;;;;8.77;2.30;;;15.80;99.90;;;;;;5057307;28;20025;-82
2021/08/07 03:40:08;;;;;;;5.32;2.05;;;15.70;99.90;;;;;;5044214;28;20025;-82
2021/08/07 03:42:33;;;;;;;7.60;2.47;;;15.70;99.90;;;;;;5058212;28;20043;-81
2021/08/07 03:44:59;;;;;;;5.45;2.70;;;15.60;99.90;;;;;;5055216;28;20465;-82
2021/08/07 03:47:24;;;;;;;3.88;2.00;;;15.60;99.90;;;;;;5058639;28;20021;-82
2021/08/07 03:49:50;;;;;;;4.68;2.85;;;15.60;99.90;;;;;;5040194;28;20032;-82
2021/08/07 03:52:16;;;;;;;3.53;2.03;;;15.50;99.90;;;;;;5058009;28;20113;-82
2021/08/07 03:54:42;;;;;;;3.47;2.33;;;15.40;99.90;;;;;;5056741;28;20028;-82
2021/08/07 03:57:07;;;;;;;6.47;2.80;;;15.40;99.90;;;;;;5056858;28;20035;-83
2021/08/07 03:59:33;;;;;;;7.35;3.03;;;15.40;99.90;;;;;;5057081;28;20468;-82
2021/08/07 04:01:58;;;;;;;4.40;2.65;;;15.50;99.90;;;;;;5056203;28;20344;-80
2021/08/07 04:04:24;;;;;;;4.68;2.90;;;15.40;99.90;;;;;;5056456;28;20044;-82
2021/08/07 04:06:50;;;;;;;6.45;2.65;;;15.40;99.90;;;;;;5055819;28;20021;-82
2021/08/07 04:09:15;;;;;;;6.10;3.20;;;15.40;99.90;;;;;;5056225;28;20115;-80
2021/08/07 04:11:41;;;;;;;9.52;3.20;;;15.40;99.90;;;;;;5055771;28;20492;-82
2021/08/07 04:14:07;;;;;;;3.15;2.17;;;15.40;99.90;;;;;;5055965;28;20029;-80
2021/08/07 04:16:34;;;;;;;9.80;2.67;;;15.40;99.90;;;;;;5054701;28;20405;-83
2021/08/07 04:19:00;;;;;;;6.32;2.72;;;15.40;99.90;;;;;;5056580;28;20044;-82
2021/08/07 04:21:26;;;;;;;2.75;2.10;;;15.40;99.90;;;;;;5056643;28;20029;-81
2021/08/07 04:23:52;;;;;;;5.70;2.95;;;15.40;99.90;;;;;;5056139;28;20064;-81
2021/08/07 04:26:17;;;;;;;4.57;2.55;;;15.40;99.90;;;;;;5056116;28;20388;-81
2021/08/07 04:28:43;;;;;;;5.07;2.78;;;15.50;99.90;;;;;;5055943;28;20052;-82
2021/08/07 04:31:09;;;;;;;6.55;2.80;;;15.50;99.90;;;;;;5055661;28;20389;-82
2021/08/07 04:33:34;;;;;;;4.10;2.03;;;15.60;99.90;;;;;;5055487;28;20029;-82
2021/08/07 04:36:02;;;;;;;4.30;2.33;;;15.60;99.90;;;;;;5055051;28;20494;-82
2021/08/07 04:38:27;;;;;;;6.22;3.08;;;15.70;99.90;;;;;;5054864;28;20021;-82
2021/08/07 04:40:53;;;;;;;9.05;2.88;;;15.80;99.90;;;;;;5055779;28;20036;-82
2021/08/07 04:43:18;;;;;;;3.22;1.95;;;16.10;99.90;;;;;;5054970;28;20108;-82
2021/08/07 04:45:44;;;;;;;6.57;2.35;;;16.20;99.90;;;;;;5055636;28;20110;-83
2021/08/07 04:48:09;;;;;;;5.13;2.08;;;16.50;99.90;;;;;;5053992;28;20033;-82
2021/08/07 04:50:35;;;;;;;8.05;3.20;;;16.80;99.90;;;;;;5043627;28;20143;-82
2021/08/07 04:53:02;;;;;;;3.92;2.20;;;16.90;99.90;;;;;;5055388;28;20552;-83
2021/08/07 04:55:28;;;;;;;3.75;2.30;;;16.80;99.90;;;;;;5068962;28;20020;-79
2021/08/07 04:57:53;;;;;;;5.00;2.38;;;16.60;99.90;;;;;;5061920;28;20032;-83
2021/08/07 05:00:20;;;;;;;3.38;2.17;;;16.60;99.90;;;;;;5039313;28;20558;-83
2021/08/07 05:02:46;;;;;;;5.18;2.40;;;16.60;99.90;;;;;;5041213;28;20045;-82
2021/08/07 05:05:13;;;;;;;4.88;2.17;;;16.60;99.90;;;;;;5059369;28;20040;-81
2021/08/07 05:07:40;;;;;;;5.28;2.50;;;16.60;99.90;;;;;;5041477;28;20037;-82
2021/08/07 05:10:08;;;;;;;4.90;2.15;;;16.70;99.90;;;;;;5041723;28;20028;-82
2021/08/07 05:12:33;;;;;;;5.13;2.30;;;16.80;99.90;;;;;;5061677;28;20477;-82
2021/08/07 05:14:59;;;;;;;7.05;2.33;;;16.70;99.90;;;;;;5058414;28;20029;-82
2021/08/07 05:17:26;;;;;;;9.43;2.60;;;16.70;99.90;;;;;;5057211;28;20075;-81
2021/08/07 05:19:52;;;;;;;6.50;3.58;;;16.80;99.90;;;;;;5059853;28;20051;-81
2021/08/07 05:22:18;;;;;;;8.40;2.50;;;17.00;99.90;;;;;;5058863;28;20048;-83
2021/08/07 05:24:44;;;;;;;4.15;3.38;;;17.00;99.90;;;;;;5059683;28;20048;-82
2021/08/07 05:27:10;;;;;;;10.60;2.65;;;17.10;99.90;;;;;;5059237;28;20104;-82
2021/08/07 05:29:35;;;;;;;11.10;3.78;;;17.30;99.90;;;;;;5059195;28;20028;-82
2021/08/07 05:32:01;;;;;;;5.70;2.05;;;17.40;99.90;;;;;;5059120;28;20028;-82
2021/08/07 05:34:27;;;;;;;6.18;2.33;;;17.60;99.90;;;;;;5059081;28;20036;-83
2021/08/07 05:36:53;;;;;;;4.93;2.50;;;17.60;99.90;;;;;;5068518;28;20028;-81
2021/08/07 05:41:51;;;;;;;3.75;1.70;;;17.70;99.90;;;;;;5015002;28;20022;-80
2021/08/07 05:44:17;;;;;;;11.13;2.03;;;18.10;99.90;;;;;;5000057;28;20039;-80
2021/08/07 05:46:42;;;;;;;1.98;1.42;;;18.40;99.90;;;;;;5006024;28;20042;-79
2021/08/07 05:49:08;;;;;;;3.10;1.30;;;18.90;99.90;;;;;;5025074;28;20081;-79
2021/08/07 05:51:35;;;;;;;3.38;1.60;;;19.20;99.90;;;;;;5021465;28;20101;-80
2021/08/07 05:54:04;;;;;;;4.35;1.33;;;19.80;99.90;;;;;;5021253;28;20037;-80
2021/08/07 05:56:30;;;;;;;3.03;1.23;;;20.40;99.90;;;;;;5016203;28;20029;-80
2021/08/07 05:58:56;;;;;;;2.40;1.33;;;20.50;99.90;;;;;;5004189;28;20089;-81
2021/08/07 06:01:22;;;;;;;2.97;1.40;;;20.10;99.90;;;;;;5019020;28;20334;-81
2021/08/07 06:03:47;;;;;;;3.75;1.50;;;19.90;99.90;;;;;;5002749;28;20029;-82
2021/08/07 06:06:13;;;;;;;2.47;1.30;;;19.70;99.90;;;;;;4986194;28;20045;-81
2021/08/07 06:08:39;;;;;;;5.20;1.48;;;19.50;99.90;;;;;;5010514;28;20025;-80
2021/08/07 06:11:04;;;;;;;3.95;1.50;;;19.20;99.90;;;;;;5002604;28;20030;-82
2021/08/07 06:13:30;;;;;;;4.75;1.77;;;19.10;99.90;;;;;;4999588;28;20034;-83
2021/08/07 06:15:56;;;;;;;7.80;1.98;;;18.90;99.90;;;;;;4999422;28;20033;-82
2021/08/07 06:18:21;;;;;;;2.25;1.85;;;19.20;99.90;;;;;;5025643;28;20096;-82
2021/08/07 06:20:48;;;;;;;4.35;1.48;;;19.40;99.90;;;;;;5009012;28;20034;-81
2021/08/07 06:23:15;;;;;;;2.22;1.67;;;19.50;99.90;;;;;;5020372;28;20026;-81
2021/08/07 06:25:40;;;;;;;3.40;1.60;;;19.80;99.90;;;;;;5004608;28;20482;-82
2021/08/07 06:28:06;;;;;;;1.48;1.30;;;19.70;99.90;;;;;;5007170;28;20045;-82
2021/08/07 06:30:32;;;;;;;6.10;1.88;;;19.70;99.90;;;;;;5029044;28;20025;-79
2021/08/07 06:32:58;;;;;;;2.58;1.60;;;19.80;99.90;;;;;;5002017;28;20038;-81
2021/08/07 06:35:24;;;;;;;3.05;1.20;;;19.90;99.90;;;;;;4987971;28;20047;-81
2021/08/07 06:37:50;;;;;;;3.70;1.23;;;20.10;99.90;;;;;;5017863;28;20026;-81
2021/08/07 06:40:16;;;;;;;3.05;1.27;;;20.90;99.90;;;;;;4988229;28;20030;-82
2021/08/07 06:42:42;;;;;;;5.03;1.60;;;21.20;99.90;;;;;;4982177;28;20072;-81
2021/08/07 06:45:09;;;;;;;2.53;1.15;;;20.90;99.90;;;;;;4981489;28;20030;-80
2021/08/07 06:47:34;;;;;;;6.13;1.52;;;20.80;99.90;;;;;;5014677;28;20037;-84
2021/08/07 06:50:00;;;;;;;8.48;2.03;;;21.10;99.90;;;;;;5002437;28;20042;-80
2021/08/07 06:52:26;;;;;;;3.20;1.52;;;21.00;99.90;;;;;;5017639;28;20036;-82
2021/08/07 06:54:51;;;;;;;2.42;1.27;;;20.70;99.90;;;;;;5000299;28;20030;-81
2021/08/07 06:57:18;;;;;;;5.28;1.30;;;20.40;99.90;;;;;;5001210;28;20235;-80
2021/08/07 06:59:45;;;;;;;2.63;1.13;;;20.20;99.90;;;;;;5002375;28;20040;-74
2021/08/07 07:02:10;;;;;;;3.95;1.23;;;20.30;99.90;;;;;;4994033;28;20117;-76
2021/08/07 07:04:36;;;;;;;3.72;1.73;;;20.30;99.90;;;;;;5007529;28;20033;-75
2021/08/07 07:07:02;;;;;;;4.65;1.48;;;20.70;99.90;;;;;;5001297;28;20030;-76
2021/08/07 07:09:28;;;;;;;1.67;1.48;;;21.00;99.90;;;;;;5014280;28;20160;-77
2021/08/07 07:11:53;;;;;;;3.25;1.40;;;21.20;99.90;;;;;;5007458;28;20038;-77
2021/08/07 07:14:19;;;;;;;2.17;1.45;;;21.10;99.90;;;;;;5020731;28;20049;-76
2021/08/07 07:16:46;;;;;;;4.00;1.70;;;21.00;99.90;;;;;;5002188;28;20032;-76
2021/08/07 07:19:11;;;;;;;5.07;1.67;;;21.20;99.90;;;;;;5005310;28;20023;-76
2021/08/07 07:21:37;;;;;;;2.67;1.75;;;21.20;99.90;;;;;;4992300;28;20049;-77
2021/08/07 07:24:04;;;;;;;4.03;1.40;;;21.40;99.90;;;;;;4998208;28;20372;-76
2021/08/07 07:26:30;;;;;;;2.10;1.38;;;21.40;99.90;;;;;;5002429;28;20030;-77
2021/08/07 07:28:56;;;;;;;4.82;1.83;;;21.40;99.90;;;;;;4994692;28;20033;-78
2021/08/07 07:31:22;;;;;;;2.67;1.23;;;21.50;99.90;;;;;;4995089;28;20034;-76
2021/08/07 07:33:48;;;;;;;4.28;1.40;;;21.50;99.90;;;;;;4991699;28;20034;-77
2021/08/07 07:36:14;;;;;;;3.47;1.38;;;21.50;99.90;;;;;;4986083;28;20033;-76
2021/08/07 07:38:40;;;;;;;4.68;0.88;;;21.50;99.90;;;;;;5021417;28;20034;-75
2021/08/07 07:41:06;;;;;;;3.75;1.27;;;21.50;99.90;;;;;;5015754;28;20105;-76
2021/08/07 07:43:32;;;;;;;1.85;1.05;;;21.70;99.90;;;;;;4986286;28;20030;-76
2021/08/07 07:45:58;;;;;;;3.10;0.80;;;21.50;99.90;;;;;;5010358;28;20049;-75
2021/08/07 07:48:24;;;;;;;4.25;0.85;;;22.10;99.90;;;;;;5005433;28;20042;-75
2021/08/07 07:50:51;;;;;;;2.17;1.00;;;22.30;99.90;;;;;;4986395;28;20113;-76
2021/08/07 07:53:17;;;;;;;2.83;0.80;;;22.20;99.90;;;;;;4999113;28;20034;-81
2021/08/07 07:55:43;;;;;;;4.63;0.90;;;22.20;99.90;;;;;;5011626;28;20026;-81
2021/08/07 07:58:09;;;;;;;2.08;1.13;;;22.10;99.90;;;;;;4994843;28;20104;-80
2021/08/07 08:00:34;;;;;;;3.63;2.40;;;22.30;99.90;;;;;;5007574;28;20026;-81
2021/08/07 08:03:00;;;;;;;2.65;0.95;;;22.60;99.90;;;;;;5016065;28;20030;-78
2021/08/07 08:05:25;;;;;;;2.88;1.60;;;22.60;99.90;;;;;;5016963;28;20040;-80
2021/08/07 08:07:51;;;;;;;2.33;1.23;;;22.60;99.90;;;;;;5008086;28;20030;-80
2021/08/07 08:10:17;;;;;;;2.25;0.90;;;22.80;99.90;;;;;;4999770;28;21266;-79
2021/08/07 08:12:44;;;;;;;4.75;1.05;;;23.00;99.90;;;;;;5000592;28;20026;-80
2021/08/07 08:15:11;;;;;;;2.38;0.90;;;23.10;99.90;;;;;;4996833;28;20414;-78
2021/08/07 08:17:37;;;;;;;5.78;1.10;;;23.50;99.90;;;;;;4979038;28;20033;-79
2021/08/07 08:20:04;;;;;;;2.83;1.10;;;23.00;99.90;;;;;;5010858;28;20029;-79
2021/08/07 08:22:30;;;;;;;2.08;0.98;;;23.30;99.90;;;;;;5001186;28;20038;-79
2021/08/07 08:24:56;;;;;;;2.58;1.30;;;23.50;99.90;;;;;;4994279;28;20041;-78
2021/08/07 08:27:21;;;;;;;2.22;1.27;;;23.70;99.90;;;;;;4994906;28;20036;-79
2021/08/07 08:29:47;;;;;;;5.50;1.05;;;23.70;99.90;;;;;;4999852;28;20029;-78
2021/08/07 08:32:13;;;;;;;2.80;0.90;;;23.70;99.90;;;;;;4995860;28;20080;-78
2021/08/07 08:34:39;;;;;;;1.42;0.90;;;24.00;99.90;;;;;;4994573;28;20030;-78
2021/08/07 08:37:05;;;;;;;2.05;0.90;;;23.90;99.90;;;;;;4981929;28;20037;-79
2021/08/07 08:39:30;;;;;;;2.35;0.80;;;24.00;99.90;;;;;;4977130;28;20041;-79
2021/08/07 08:41:56;;;;;;;1.25;0.77;;;23.80;99.90;;;;;;4997999;28;20037;-78
2021/08/07 08:44:22;;;;;;;2.55;1.13;;;23.60;99.90;;;;;;4996540;28;20014;-79
2021/08/07 08:46:48;;;;;;;1.88;1.00;;;23.60;99.90;;;;;;4995504;28;20390;-79
2021/08/07 08:49:17;;;;;;;3.50;1.02;;;23.40;99.90;;;;;;4994082;28;20044;-79
2021/08/07 08:51:45;;;;;;;1.30;1.00;;;22.90;99.90;;;;;;4994017;28;20125;-79
2021/08/07 08:54:12;;;;;;;1.48;0.90;;;23.40;99.90;;;;;;4993524;28;20023;-79
2021/08/07 08:56:57;;;;;;;2.95;0.88;;;23.60;99.90;;;;;;4994562;28;20113;-78
2021/08/07 08:59:24;;;;;;;1.35;0.90;;;23.70;99.90;;;;;;5025723;28;20255;-79
2021/08/07 09:01:51;;;;;;;3.05;1.52;;;23.80;99.90;;;;;;5028402;28;20029;-79
2021/08/07 09:04:17;;;;;;;4.13;1.10;;;23.60;99.90;;;;;;4996981;28;20018;-80
2021/08/07 09:06:43;;;;;;;4.10;1.17;;;23.50;99.90;;;;;;4993923;28;20033;-78
2021/08/07 09:09:12;;;;;;;3.85;1.27;;;23.40;99.90;;;;;;5002767;28;20084;-78
2021/08/07 09:11:52;;;;;;;1.80;1.00;;;23.50;99.90;;;;;;4999609;28;20057;-77
2021/08/07 09:14:22;;;;;;;2.97;0.98;;;23.60;99.90;;;;;;4991555;28;20034;-80
2021/08/07 09:19:45;;;;;;;2.22;1.10;;;23.30;99.90;;;;;;5007903;28;20022;-75
2021/08/07 09:22:18;;;;;;;3.42;1.20;;;23.00;99.90;;;;;;4993793;28;20023;-78
2021/08/07 09:25:08;;;;;;;2.22;0.90;;;22.80;99.90;;;;;;4994137;28;20030;-78
2021/08/07 09:27:40;;;;;;;3.27;1.60;;;22.90;99.90;;;;;;5005165;28;20018;-77
2021/08/07 09:30:25;;;;;;;1.25;0.90;;;23.00;99.90;;;;;;4990546;28;20027;-80
2021/08/07 09:32:59;;;;;;;2.75;1.27;;;23.00;99.90;;;;;;5012620;28;20088;-80
2021/08/07 09:35:32;;;;;;;1.38;0.77;;;23.80;99.90;;;;;;4984082;28;20117;-76
2021/08/07 09:38:15;;;;;;;2.53;0.98;;;23.90;99.90;;;;;;5002521;28;20018;-76
2021/08/07 09:40:51;;;;;;;2.13;1.00;;;23.60;99.90;;;;;;4997048;28;20364;-75
2021/08/07 09:43:22;;;;;;;3.05;1.10;;;23.40;99.90;;;;;;4994385;28;20053;-76
2021/08/07 09:46:07;;;;;;;1.73;0.85;;;23.30;99.90;;;;;;5002549;28;20360;-76
2021/08/07 09:48:46;;;;;;;2.30;1.10;;;23.30;99.90;;;;;;5005236;28;20045;-76
2021/08/07 09:51:20;;;;;;;2.20;0.80;;;23.00;99.90;;;;;;5005829;28;20072;-77
2021/08/07 09:54:04;;;;;;;2.88;1.13;;;22.80;99.90;;;;;;4994340;28;20041;-76
2021/08/07 09:56:48;;;;;;;2.75;0.90;;;22.70;99.90;;;;;;4994800;28;20034;-76
2021/08/07 09:59:14;;;;;;;5.00;1.48;;;22.50;99.90;;;;;;5005161;28;20029;-82
2021/08/07 10:01:41;;;;;;;2.00;0.98;;;22.30;99.90;;;;;;5000644;28;20025;-81
2021/08/07 10:04:12;;;;;;;3.53;1.00;;;22.20;99.90;;;;;;5009054;28;20041;-80
2021/08/07 10:06:40;;;;;;;1.63;1.17;;;22.20;99.90;;;;;;4998611;28;20524;-80
2021/08/07 10:09:06;;;;;;;6.72;1.50;;;22.10;99.90;;;;;;4987580;28;20058;-78
2021/08/07 10:11:33;;;;;;;3.25;1.10;;;21.90;99.90;;;;;;4995798;28;20072;-75
2021/08/07 10:14:00;;;;;;;2.28;0.98;;;21.80;99.90;;;;;;4996418;28;20041;-79
2021/08/07 10:16:26;;;;;;;2.17;1.00;;;21.60;99.90;;;;;;5009237;28;20113;-80
2021/08/07 10:18:52;;;;;;;4.25;1.00;;;21.30;99.90;;;;;;4993812;28;20049;-78
2021/08/07 10:21:19;;;;;;;4.25;1.20;;;20.90;99.90;;;;;;4997171;28;20021;-76
2021/08/07 10:23:46;;;;;;;3.00;1.02;;;20.70;99.90;;;;;;5001326;28;20045;-75
2021/08/07 10:26:16;;;;;;;1.98;1.00;;;20.50;99.90;;;;;;5003327;28;20620;-76
2021/08/07 10:28:58;;;;;;;4.05;1.33;;;20.40;99.90;;;;;;5005184;28;20022;-75
2021/08/07 10:31:26;;;;;;;3.55;1.95;;;20.30;99.90;;;;;;5001429;28;20033;-73
2021/08/07 10:33:56;;;;;;;2.53;1.40;;;20.10;99.90;;;;;;4997353;28;20032;-78
2021/08/07 10:36:23;;;;;;;3.83;1.90;;;20.00;99.90;;;;;;4998370;28;20117;-78
2021/08/07 10:38:49;;;;;;;5.18;1.73;;;19.90;99.90;;;;;;5004503;28;20014;-78
2021/08/07 10:41:16;;;;;;;3.90;1.30;;;19.90;99.90;;;;;;4994470;28;20441;-76
2021/08/07 10:43:42;;;;;;;4.18;1.38;;;19.70;99.90;;;;;;5006416;28;20054;-83
2021/08/07 10:46:10;;;;;;;2.05;1.30;;;19.50;99.90;;;;;;4997563;28;20037;-83
2021/08/07 10:48:46;;;;;;;3.13;2.83;;;19.50;99.90;;;;;;5005316;28;20173;-81
2021/08/07 10:51:24;;;;;;;2.90;1.70;;;19.50;99.90;;;;;;4984670;28;20037;-81
2021/08/07 10:54:00;;;;;;;2.53;1.45;;;19.40;99.90;;;;;;4982608;28;20401;-82
2021/08/07 10:56:29;;;;;;;4.15;2.05;;;19.40;99.90;;;;;;4995818;28;20023;-83
2021/08/07 10:59:19;;;;;;;3.00;1.77;;;19.30;99.90;;;;;;5001603;28;20014;-83
2021/08/07 11:01:47;;;;;;;3.40;2.07;;;19.40;99.90;;;;;;4991855;28;20030;-83
2021/08/07 11:04:29;;;;;;;4.45;2.47;;;19.40;99.90;;;;;;4996474;28;20023;-82
2021/08/07 11:06:58;;;;;;;3.45;1.80;;;19.30;99.90;;;;;;5000988;28;20050;-84
2021/08/07 11:09:40;;;;;;;3.10;1.88;;;19.30;99.90;;;;;;5000659;28;20023;-82
2021/08/07 11:12:06;;;;;;;3.38;1.52;;;19.20;99.90;;;;;;5008222;28;20034;-82
2021/08/07 11:14:34;;;;;;;2.40;1.40;;;19.10;99.90;;;;;;5000975;28;20449;-83
2021/08/07 11:17:06;;;;;;;4.72;1.58;;;19.10;99.90;;;;;;5010932;28;20014;-85
2021/08/07 11:19:56;;;;;;;4.93;1.80;;;19.10;99.90;;;;;;5018009;28;20041;-83
2021/08/07 11:22:44;;;;;;;3.30;1.40;;;19.20;99.90;;;;;;5003730;28;20093;-82
2021/08/07 11:25:22;;;;;;;3.75;1.77;;;19.10;99.90;;;;;;4997847;28;20076;-83
2021/08/07 11:30:28;;;;;;;3.13;1.45;;;19.20;99.90;;;;;;4995805;28;20402;-82
2021/08/07 11:32:57;;;;;;;3.65;2.08;;;19.00;99.90;;;;;;4987055;28;20026;-82
2021/08/07 11:35:49;;;;;;;2.75;1.60;;;19.10;99.90;;;;;;5004197;28;20090;-82
2021/08/07 11:38:25;;;;;;;3.67;1.58;;;19.00;99.90;;;;;;5007809;28;20014;-82
2021/08/07 11:40:51;;;;;;;4.40;2.20;;;18.90;99.90;;;;;;5014096;28;20026;-82
2021/08/07 11:43:24;;;;;;;4.10;1.30;;;18.90;99.90;;;;;;5002355;28;20034;-82
2021/08/07 11:45:59;;;;;;;3.40;1.70;;;18.90;99.90;;;;;;4995054;28;20030;-83
2021/08/07 11:48:25;;;;;;;3.75;1.83;;;18.90;99.90;;;;;;4994532;28;20057;-84
2021/08/07 11:50:52;;;;;;;5.75;3.53;;;19.00;99.90;;;;;;4995566;28;20402;-82
2021/08/07 11:53:19;;;;;;;2.88;1.75;;;19.00;99.90;;;;;;5003511;28;20037;-83
2021/08/07 11:56:06;;;;;;;2.50;2.20;;;19.10;99.90;;;;;;5010486;28;20026;-83
2021/08/07 11:58:33;;;;;;;3.13;1.98;;;19.10;99.90;;;;;;5003376;28;20073;-82
2021/08/07 12:01:04;;;;;;;5.60;2.10;;;19.20;99.90;;;;;;4994789;28;20061;-82
2021/08/07 12:03:50;;;;;;;3.15;1.88;;;19.20;99.90;;;;;;4985431;28;20478;-82
2021/08/07 12:06:19;;;;;;;3.65;1.70;;;19.10;99.90;;;;;;5014919;28;20489;-83
2021/08/07 12:08:44;;;;;;;3.40;2.15;;;19.10;99.90;;;;;;5007139;28;20037;-84
2021/08/07 12:11:15;;;;;;;5.50;2.70;;;19.10;99.90;;;;;;5003541;28;20026;-82
2021/08/07 12:13:43;;;;;;;2.88;1.88;;;19.20;99.90;;;;;;4977191;28;20033;-83
2021/08/07 12:16:12;;;;;;;6.22;2.13;;;19.20;99.90;;;;;;5011049;28;20050;-82
2021/08/07 12:18:48;;;;;;;3.95;2.25;;;19.30;99.90;;;;;;5000858;28;20048;-83
2021/08/07 12:21:25;;;;;;;3.58;2.10;;;19.30;99.90;;;;;;4993699;28;20030;-83
2021/08/07 12:24:11;;;;;;;2.88;1.98;;;19.30;99.90;;;;;;4993290;28;20482;-81
2021/08/07 12:26:52;;;;;;;2.85;1.45;;;19.40;99.90;;;;;;4994734;28;20089;-83
2021/08/07 12:29:21;;;;;;;3.88;2.67;;;19.30;99.90;;;;;;5002487;28;20513;-83
2021/08/07 12:31:53;;;;;;;3.17;1.52;;;19.40;99.90;;;;;;5002354;28;20034;-83
2021/08/07 12:34:28;;;;;;;4.03;1.65;;;19.30;99.90;;;;;;4980423;28;20028;-81
2021/08/07 12:37:07;;;;;;;2.00;1.50;;;19.40;99.90;;;;;;4996346;28;20032;-83
2021/08/07 12:39:37;;;;;;;3.67;1.50;;;19.30;99.90;;;;;;5008743;28;20386;-81
2021/08/07 12:42:03;;;;;;;3.17;1.48;;;19.20;99.90;;;;;;4998646;28;20030;-83
2021/08/07 12:44:29;;;;;;;2.85;1.50;;;19.20;99.90;;;;;;5019652;28;20049;-83
2021/08/07 12:46:56;;;;;;;3.40;1.58;;;19.20;99.90;;;;;;5017748;28;20034;-82
2021/08/07 12:49:44;;;;;;;3.42;2.13;;;19.20;99.90;;;;;;5010739;28;20029;-81
2021/08/07 12:52:13;;;;;;;2.15;1.70;;;19.20;99.90;;;;;;5003481;28;20469;-82
2021/08/07 12:54:40;;;;;;;5.93;1.85;;;19.30;99.90;;;;;;5006310;28;20564;-83
2021/08/07 12:57:23;;;;;;;3.08;1.90;;;19.20;99.90;;;;;;4991578;28;20128;-82
2021/08/07 12:59:50;;;;;;;5.20;1.73;;;19.10;99.90;;;;;;5012120;28;20383;-83